Time;durP1;ratioP1;P1;durP2;ratioP2;P2;SDS_P1;SDS_P2;PMS_P1;PMS_P2;Temp;Humidity;BMP_temperature;BMP_pressure;BME280_temperature;BME280_humidity;BME280_pressure;Samples;Min_cycle;Max_cycle;Signal;HPM_P1;HPM_P2
2023/09/03 00:00:31;;;;;;;10.00;4.10;;;;;;;23.07;39.48;100985.67;107828;1286;21986;-62
2023/09/03 00:02:56;;;;;;;5.40;3.50;;;;;;;22.97;39.72;100986.17;107947;1282;22094;-70
2023/09/03 00:05:22;;;;;;;7.70;3.90;;;;;;;22.85;39.78;100985.62;107989;1286;21996;-58
2023/09/03 00:07:49;;;;;;;7.30;3.70;;;;;;;22.70;39.81;100986.05;107973;1286;22009;-60
2023/09/03 00:10:15;;;;;;;10.00;4.50;;;;;;;22.57;40.10;100985.81;108022;1283;21992;-59
2023/09/03 00:12:40;;;;;;;8.60;4.00;;;;;;;22.50;40.36;100986.56;108071;1280;24225;-59
2023/09/03 00:15:07;;;;;;;8.30;3.80;;;;;;;22.45;40.45;100989.15;107961;1289;22048;-58
2023/09/03 00:17:32;;;;;;;5.60;3.50;;;;;;;22.42;40.50;100986.44;107869;1279;21989;-69
2023/09/03 00:19:58;;;;;;;7.30;3.50;;;;;;;22.36;40.53;100983.31;107824;1282;21990;-69
2023/09/03 00:22:23;;;;;;;9.00;3.90;;;;;;;22.34;40.61;100984.17;107909;1288;21985;-58
2023/09/03 00:24:49;;;;;;;9.90;4.40;;;;;;;22.29;40.67;100979.06;108004;1284;22034;-60
2023/09/03 00:27:15;;;;;;;6.00;3.80;;;;;;;22.24;40.82;100980.35;108056;1280;21996;-59
2023/09/03 00:29:41;;;;;;;5.30;3.60;;;;;;;22.22;40.75;100981.92;107990;1284;22002;-70
2023/09/03 00:32:06;;;;;;;8.50;3.80;;;;;;;22.21;40.81;100982.15;108103;1286;21988;-58
2023/09/03 00:34:32;;;;;;;5.70;3.80;;;;;;;22.20;40.79;100980.96;107860;1285;21992;-58
2023/09/03 00:36:59;;;;;;;6.40;4.00;;;;;;;22.20;40.78;100975.23;107990;1283;22063;-69
2023/09/03 00:39:24;;;;;;;6.20;3.80;;;;;;;22.20;40.95;100971.30;108058;1283;22193;-70
2023/09/03 00:41:50;;;;;;;4.60;3.10;;;;;;;22.27;40.81;100971.44;107908;1283;21998;-71
2023/09/03 00:44:16;;;;;;;7.60;4.00;;;;;;;22.36;40.70;100968.13;107826;1289;21990;-70
2023/09/03 00:46:42;;;;;;;8.00;3.90;;;;;;;22.39;40.67;100967.27;107893;1286;22017;-66
2023/09/03 00:49:10;;;;;;;9.30;4.10;;;;;;;22.40;40.78;100965.05;107909;1289;21996;-59
2023/09/03 00:51:36;;;;;;;5.70;3.80;;;;;;;22.39;40.67;100966.35;107956;1282;21997;-70
2023/09/03 00:54:02;;;;;;;9.40;4.20;;;;;;;22.39;40.72;100969.06;107714;1285;21991;-70
2023/09/03 00:56:28;;;;;;;5.60;4.10;;;;;;;22.38;40.72;100966.77;107831;1283;22040;-59
2023/09/03 00:58:53;;;;;;;6.20;4.30;;;;;;;22.39;40.75;100967.08;107723;1288;22252;-69
2023/09/03 01:01:19;;;;;;;7.90;3.90;;;;;;;22.40;40.76;100967.57;107739;1285;21986;-59
2023/09/03 01:03:45;;;;;;;6.90;3.90;;;;;;;22.41;40.78;100965.55;108037;1286;21995;-59
2023/09/03 01:06:11;;;;;;;9.10;4.10;;;;;;;22.42;40.75;100965.69;108055;1287;21995;-60
2023/09/03 01:08:36;;;;;;;7.30;4.30;;;;;;;22.43;40.75;100965.83;108032;1288;22049;-70
2023/09/03 01:11:06;;;;;;;5.90;3.90;;;;;;;22.44;40.70;100968.65;107891;1283;21998;-58
2023/09/03 01:13:35;;;;;;;9.30;3.90;;;;;;;22.43;40.70;100961.53;108019;1284;21988;-70
2023/09/03 01:16:04;;;;;;;8.00;3.90;;;;;;;22.39;40.84;100963.14;108046;1280;21987;-71
2023/09/03 01:18:30;;;;;;;5.80;3.70;;;;;;;22.34;40.73;100960.93;108029;1283;21993;-59
2023/09/03 01:21:17;;;;;;;6.40;4.20;;;;;;;22.27;40.82;100957.34;107776;1285;21990;-70
2023/09/03 01:24:03;;;;;;;10.10;4.10;;;;;;;22.22;40.85;100955.28;107851;1283;21990;-59
2023/09/03 01:26:40;;;;;;;6.90;4.80;;;;;;;22.18;41.01;100951.17;107844;1289;22006;-70
2023/09/03 01:29:06;;;;;;;7.50;4.40;;;;;;;22.16;40.97;100950.95;107815;1280;22010;-59
2023/09/03 01:31:31;;;;;;;9.10;4.70;;;;;;;22.15;41.12;100948.48;107841;1288;21997;-59
2023/09/03 01:34:02;;;;;;;7.20;4.30;;;;;;;22.12;41.09;100948.27;107723;1286;22002;-59
2023/09/03 01:36:31;;;;;;;9.00;4.40;;;;;;;22.10;41.15;100948.77;107846;1288;22453;-69
2023/09/03 01:38:58;;;;;;;6.50;4.20;;;;;;;22.09;41.18;100947.73;107911;1286;22000;-70
2023/09/03 01:41:24;;;;;;;10.90;4.90;;;;;;;22.07;41.37;100949.10;107818;1285;21990;-70
2023/09/03 01:43:50;;;;;;;7.80;4.00;;;;;;;22.05;41.24;100948.99;107882;1289;21989;-70
2023/09/03 01:46:40;;;;;;;12.80;4.50;;;;;;;22.05;41.28;100945.79;107862;1289;22014;-60
2023/09/03 01:49:09;;;;;;;;;;;;;;;22.05;41.16;100944.73;107917;1288;21978;-59
2023/09/03 01:52:13;;;;;;;8.40;4.60;;;;;;;22.04;41.12;100943.68;108068;1286;21990;-59
2023/09/03 01:54:45;;;;;;;8.60;4.90;;;;;;;22.03;41.17;100941.27;107992;1288;21990;-59
2023/09/03 01:57:47;;;;;;;8.10;4.50;;;;;;;22.01;41.26;100939.23;108010;1285;21995;-69
2023/09/03 02:00:14;;;;;;;5.80;4.00;;;;;;;21.97;41.39;100936.17;107433;1289;22003;-59
2023/09/03 02:02:42;;;;;;;6.40;4.50;;;;;;;21.95;41.47;100937.02;107852;1289;21990;-70
2023/09/03 02:05:07;;;;;;;6.80;4.40;;;;;;;21.94;41.47;100938.46;107821;1283;21994;-60
2023/09/03 02:07:33;;;;;;;5.70;3.90;;;;;;;21.94;41.44;100940.27;107887;1279;21984;-70
2023/09/03 02:09:59;;;;;;;5.40;3.70;;;;;;;21.95;41.39;100939.84;107915;1289;22433;-59
2023/09/03 02:12:25;;;;;;;6.30;4.00;;;;;;;21.95;41.53;100931.63;107747;1286;22007;-59
2023/09/03 02:14:51;;;;;;;9.30;4.50;;;;;;;21.93;41.56;100930.46;107815;1283;22051;-70
2023/09/03 02:17:20;;;;;;;8.20;4.00;;;;;;;21.92;41.57;100930.58;107965;1287;22862;-70
2023/09/03 02:19:49;;;;;;;7.70;4.50;;;;;;;21.89;41.57;100926.93;108015;1288;21999;-63
2023/09/03 02:22:14;;;;;;;9.30;4.70;;;;;;;21.86;41.58;100926.95;108022;1288;22001;-70
2023/09/03 02:24:40;;;;;;;11.60;5.80;;;;;;;21.82;41.61;100926.59;108011;1286;21976;-59
2023/09/03 02:27:05;;;;;;;9.50;4.60;;;;;;;21.80;41.49;100929.20;108137;1280;21985;-59
2023/09/03 02:29:32;;;;;;;5.40;3.80;;;;;;;21.77;41.55;100933.95;108062;1288;21994;-70
2023/09/03 02:31:57;;;;;;;8.70;4.20;;;;;;;21.75;41.56;100932.34;107997;1286;22004;-59
2023/09/03 02:34:23;;;;;;;8.60;4.30;;;;;;;21.71;41.65;100929.48;107933;1280;199893;-58
2023/09/03 02:36:48;;;;;;;8.70;4.10;;;;;;;21.69;41.67;100928.83;108054;1287;21990;-59
2023/09/03 02:39:14;;;;;;;9.20;4.50;;;;;;;21.70;41.66;100929.13;107982;1288;21995;-71
2023/09/03 02:41:40;;;;;;;6.10;4.30;;;;;;;21.72;41.86;100927.59;108019;1283;21990;-71
2023/09/03 02:44:07;;;;;;;7.70;4.40;;;;;;;21.74;41.80;100928.77;108012;1282;22028;-59
2023/09/03 02:46:32;;;;;;;6.70;4.40;;;;;;;21.73;41.81;100921.69;107992;1279;21998;-59
2023/09/03 02:48:58;;;;;;;7.70;4.70;;;;;;;21.71;41.85;100918.73;107749;1288;21993;-71
2023/09/03 02:51:24;;;;;;;8.40;4.70;;;;;;;21.69;41.81;100918.29;107978;1286;21988;-71
2023/09/03 02:53:51;;;;;;;15.30;6.60;;;;;;;21.67;41.79;100922.52;108032;1288;22251;-72
2023/09/03 02:56:16;;;;;;;15.70;5.80;;;;;;;21.63;41.91;100924.85;108013;1286;22469;-59
2023/09/03 02:58:42;;;;;;;12.00;5.10;;;;;;;21.62;41.92;100924.38;108038;1286;21985;-59
2023/09/03 03:01:09;;;;;;;149.30;14.00;;;;;;;21.60;42.01;100927.86;107939;1285;21987;-70
2023/09/03 03:03:35;;;;;;;43.70;6.00;;;;;;;21.59;42.06;100933.23;108006;1283;22002;-60
2023/09/03 03:06:01;;;;;;;14.60;5.40;;;;;;;21.58;42.05;100937.56;108010;1284;22004;-71
2023/09/03 03:08:26;;;;;;;10.80;5.00;;;;;;;21.57;42.14;100942.10;108023;1288;22003;-58
2023/09/03 03:10:52;;;;;;;13.00;5.30;;;;;;;21.56;42.09;100949.45;107961;1282;21992;-59
2023/09/03 03:13:17;;;;;;;10.50;5.10;;;;;;;21.54;42.06;100949.89;108018;1279;21987;-59
2023/09/03 03:15:44;;;;;;;9.90;5.60;;;;;;;21.52;42.31;100946.63;107976;1285;21990;-71
2023/09/03 03:18:09;;;;;;;20.10;5.60;;;;;;;21.52;42.37;100949.66;107978;1288;22028;-71
2023/09/03 03:20:35;;;;;;;15.20;5.30;;;;;;;21.50;42.35;100950.98;107981;1282;21990;-70
2023/09/03 03:23:01;;;;;;;16.30;5.20;;;;;;;21.48;42.32;100948.94;108018;1285;21990;-70
2023/09/03 03:25:26;;;;;;;53.60;7.00;;;;;;;21.46;42.30;100947.23;107962;1283;21989;-58
2023/09/03 03:27:52;;;;;;;18.00;5.60;;;;;;;21.43;42.39;100944.17;108015;1283;21987;-70
2023/09/03 03:30:17;;;;;;;12.70;5.00;;;;;;;21.39;42.39;100945.45;108025;1283;21999;-65
2023/09/03 03:32:43;;;;;;;14.40;5.30;;;;;;;21.36;42.41;100946.48;107976;1288;21992;-70
2023/09/03 03:35:09;;;;;;;8.10;4.90;;;;;;;21.34;42.37;100944.81;107824;1279;22031;-70
2023/09/03 03:37:34;;;;;;;16.50;5.70;;;;;;;21.33;42.49;100947.86;107853;1289;22005;-59
2023/09/03 03:40:00;;;;;;;16.00;5.30;;;;;;;21.35;42.54;100950.45;107815;1282;21993;-59
2023/09/03 03:42:25;;;;;;;7.90;4.80;;;;;;;21.37;42.52;100951.95;107801;1289;22001;-59
2023/09/03 03:44:51;;;;;;;11.30;5.00;;;;;;;21.40;42.65;100956.45;107946;1283;21998;-60
2023/09/03 03:47:16;;;;;;;14.70;5.00;;;;;;;21.43;42.70;100958.49;108038;1283;21992;-71
2023/09/03 03:49:42;;;;;;;18.10;5.00;;;;;;;21.45;42.80;100957.11;108024;1288;21959;-63
2023/09/03 03:52:07;;;;;;;13.40;5.10;;;;;;;21.49;42.65;100957.82;107965;1283;21996;-70
2023/09/03 03:54:35;;;;;;;12.90;5.60;;;;;;;21.52;42.85;100956.42;107799;1286;21996;-71
2023/09/03 03:57:00;;;;;;;11.60;4.70;;;;;;;21.57;42.84;100954.94;107808;1284;21992;-59
2023/09/03 03:59:27;;;;;;;46.90;8.00;;;;;;;21.61;42.81;100951.74;107813;1283;22000;-71
2023/09/03 04:01:53;;;;;;;13.70;5.10;;;;;;;21.66;42.88;100949.35;107856;1285;21991;-59
2023/09/03 04:04:19;;;;;;;18.50;5.90;;;;;;;21.73;43.01;100950.09;107955;1282;21989;-60
2023/09/03 04:06:45;;;;;;;10.60;5.30;;;;;;;21.79;42.92;100948.85;108087;1287;21987;-69
2023/09/03 04:09:10;;;;;;;19.30;5.70;;;;;;;21.87;42.89;100946.50;107989;1284;21989;-59
2023/09/03 04:11:36;;;;;;;10.50;4.30;;;;;;;21.96;42.94;100943.55;107703;1283;21993;-57
2023/09/03 04:14:01;;;;;;;9.90;5.00;;;;;;;22.08;43.21;100941.35;107818;1279;21996;-66
2023/09/03 04:16:27;;;;;;;11.00;4.50;;;;;;;22.22;43.63;100941.35;107815;1289;21990;-68
2023/09/03 04:18:53;;;;;;;10.60;4.50;;;;;;;22.38;43.56;100938.35;107856;1286;22304;-57
2023/09/03 04:21:19;;;;;;;12.50;4.10;;;;;;;22.55;43.64;100937.84;107826;1285;21992;-58
2023/09/03 04:23:44;;;;;;;8.20;4.10;;;;;;;22.72;43.47;100934.08;107977;1289;22013;-58
2023/09/03 04:26:10;;;;;;;9.90;4.40;;;;;;;22.87;43.23;100931.10;107789;1283;21990;-69
2023/09/03 04:28:35;;;;;;;8.20;4.10;;;;;;;23.03;43.30;100932.55;107803;1288;21990;-68
2023/09/03 04:31:04;;;;;;;7.10;5.10;;;;;;;23.19;43.35;100930.58;107889;1285;22024;-58
2023/09/03 04:33:30;;;;;;;10.70;5.70;;;;;;;23.39;43.53;100928.21;108053;1288;21993;-58
2023/09/03 04:35:57;;;;;;;12.30;6.00;;;;;;;23.61;43.72;100924.66;108006;1283;21990;-68
2023/09/03 04:38:23;;;;;;;14.80;6.10;;;;;;;23.85;43.71;100922.52;108061;1288;22009;-68
2023/09/03 04:40:49;;;;;;;22.60;7.00;;;;;;;24.12;43.78;100919.30;108113;1288;22044;-69
2023/09/03 04:43:14;;;;;;;11.50;5.30;;;;;;;24.42;43.83;100915.91;107882;1286;21992;-67
2023/09/03 04:45:50;;;;;;;9.80;4.50;;;;;;;24.72;43.63;100918.02;107808;1286;21981;-60
2023/09/03 04:48:16;;;;;;;8.80;4.10;;;;;;;25.02;43.41;100914.84;107796;1289;22031;-67
2023/09/03 04:50:42;;;;;;;12.20;3.70;;;;;;;25.29;43.14;100913.11;107776;1283;22000;-58
2023/09/03 04:53:08;;;;;;;7.80;3.30;;;;;;;25.51;42.80;100910.09;107756;1289;23984;-68
2023/09/03 04:55:34;;;;;;;12.00;5.10;;;;;;;25.68;42.65;100908.04;107839;1289;22098;-70
2023/09/03 04:58:00;;;;;;;12.70;3.50;;;;;;;25.81;42.27;100908.04;107852;1286;21993;-69
2023/09/03 05:00:25;;;;;;;12.90;4.50;;;;;;;25.93;42.12;100907.44;107952;1286;22030;-59
2023/09/03 05:02:51;;;;;;;11.40;3.80;;;;;;;26.04;41.91;100902.39;107977;1288;21993;-58
2023/09/03 05:05:18;;;;;;;9.40;4.10;;;;;;;26.14;41.79;100901.86;108021;1280;21986;-59
2023/09/03 05:07:44;;;;;;;8.50;4.00;;;;;;;26.23;41.59;100899.27;108033;1288;21985;-68
2023/09/03 05:10:16;;;;;;;8.90;3.80;;;;;;;26.32;41.39;100896.84;107882;1289;22160;-59
2023/09/03 05:12:42;;;;;;;7.00;3.60;;;;;;;26.40;41.25;100896.27;107855;1283;22013;-61
2023/09/03 05:15:09;;;;;;;6.60;4.00;;;;;;;26.48;41.04;100896.80;107856;1289;21995;-58
2023/09/03 05:17:35;;;;;;;10.50;4.00;;;;;;;26.55;40.77;100895.59;107896;1286;21997;-58
2023/09/03 05:20:00;;;;;;;11.60;3.40;;;;;;;26.63;40.65;100893.77;107909;1284;21995;-68
2023/09/03 05:22:26;;;;;;;12.10;4.00;;;;;;;26.73;40.60;100892.45;107836;1289;23638;-68
2023/09/03 05:24:51;;;;;;;7.30;3.70;;;;;;;26.87;40.64;100894.42;107844;1289;22038;-68
2023/09/03 05:27:17;;;;;;;9.20;3.70;;;;;;;27.01;40.64;100894.83;107824;1286;22028;-68
2023/09/03 05:29:43;;;;;;;9.20;3.80;;;;;;;27.16;40.37;100895.34;107944;1288;21993;-58
2023/09/03 05:32:08;;;;;;;8.90;3.40;;;;;;;27.32;40.41;100893.63;108007;1288;21990;-59
2023/09/03 05:34:34;;;;;;;9.30;4.40;;;;;;;27.49;40.62;100893.82;108047;1283;21996;-58
2023/09/03 05:37:00;;;;;;;8.60;4.50;;;;;;;27.69;40.60;100893.56;108004;1279;21994;-69
2023/09/03 05:39:26;;;;;;;11.80;4.20;;;;;;;27.92;40.65;100892.39;108062;1288;21999;-68
2023/09/03 05:41:52;;;;;;;10.00;4.10;;;;;;;28.14;40.55;100888.89;108004;1286;21994;-60
2023/09/03 05:44:17;;;;;;;7.20;3.80;;;;;;;28.36;40.60;100886.98;108020;1286;21994;-68
2023/09/03 05:46:43;;;;;;;7.30;3.70;;;;;;;28.58;40.54;100882.69;107992;1283;21987;-69
2023/09/03 05:49:09;;;;;;;8.40;3.80;;;;;;;28.81;40.50;100882.52;107864;1286;21990;-58
2023/09/03 05:51:34;;;;;;;6.10;3.60;;;;;;;29.03;40.48;100880.90;107804;1289;22009;-70
2023/09/03 05:54:00;;;;;;;8.60;3.30;;;;;;;29.26;40.47;100880.46;107889;1288;21995;-69
2023/09/03 05:56:25;;;;;;;7.80;4.30;;;;;;;29.46;40.18;100879.32;108020;1284;22174;-59
2023/09/03 05:58:51;;;;;;;7.10;3.50;;;;;;;29.65;40.41;100877.52;108087;1280;21990;-69
2023/09/03 06:01:17;;;;;;;11.80;3.40;;;;;;;29.88;40.48;100871.29;108050;1288;21990;-70
2023/09/03 06:03:43;;;;;;;11.80;3.30;;;;;;;30.12;40.24;100869.25;107970;1283;22014;-69
2023/09/03 06:06:09;;;;;;;6.70;3.10;;;;;;;30.33;39.92;100866.45;107979;1286;23612;-59
2023/09/03 06:08:36;;;;;;;5.00;3.00;;;;;;;30.50;39.29;100863.70;107987;1288;21995;-68
2023/09/03 06:11:01;;;;;;;5.70;3.20;;;;;;;30.62;39.00;100865.23;108059;1280;24335;-69
2023/09/03 06:13:27;;;;;;;4.40;3.10;;;;;;;30.72;38.83;100862.51;108013;1283;21990;-59
2023/09/03 06:15:54;;;;;;;5.60;3.00;;;;;;;30.80;38.43;100862.77;107992;1286;21991;-69
2023/09/03 06:18:19;;;;;;;5.70;3.80;;;;;;;30.87;38.42;100859.60;107897;1283;22001;-70
2023/09/03 06:20:45;;;;;;;5.90;3.00;;;;;;;30.93;38.08;100858.66;107816;1283;23050;-69
2023/09/03 06:23:15;;;;;;;6.40;3.10;;;;;;;30.97;37.55;100861.16;107811;1289;21990;-59
2023/09/03 06:25:44;;;;;;;;;;;;;;;31.00;37.77;100861.11;107863;1288;21971;-59
2023/09/03 06:28:09;;;;;;;6.20;3.30;;;;;;;31.08;37.62;100857.43;108021;1284;22454;-60
2023/09/03 06:30:35;;;;;;;7.60;3.10;;;;;;;31.17;37.19;100856.09;108021;1288;21994;-59
2023/09/03 06:33:05;;;;;;;5.70;3.20;;;;;;;31.25;37.07;100857.73;108041;1281;21997;-59
2023/09/03 06:35:30;;;;;;;6.50;3.00;;;;;;;31.41;37.48;100857.15;107981;1283;22438;-69
2023/09/03 06:37:57;;;;;;;5.90;2.80;;;;;;;31.58;37.02;100857.20;108107;1289;21997;-59
2023/09/03 06:40:23;;;;;;;5.90;3.30;;;;;;;31.76;37.29;100849.80;107809;1286;22057;-59
2023/09/03 06:42:48;;;;;;;4.30;2.50;;;;;;;31.98;37.04;100846.19;107785;1286;21990;-59
2023/09/03 06:45:14;;;;;;;4.50;3.10;;;;;;;32.17;36.76;100850.20;107887;1283;21990;-59
2023/09/03 06:47:40;;;;;;;5.20;3.20;;;;;;;32.34;36.40;100850.42;107982;1283;21987;-67
2023/09/03 06:50:06;;;;;;;6.40;3.00;;;;;;;32.51;36.54;100848.59;107972;1284;22027;-69
2023/09/03 06:52:35;;;;;;;4.40;3.20;;;;;;;32.76;36.29;100846.53;108037;1286;21995;-69
2023/09/03 06:55:01;;;;;;;5.90;2.80;;;;;;;32.96;35.55;100843.27;107957;1286;21994;-69
2023/09/03 06:57:27;;;;;;;5.70;2.40;;;;;;;33.06;35.58;100844.26;107904;1287;21966;-60
2023/09/03 06:59:52;;;;;;;7.20;3.80;;;;;;;33.14;35.27;100844.05;107807;1289;21993;-59
2023/09/03 07:02:18;;;;;;;5.00;2.70;;;;;;;33.24;35.23;100847.77;107817;1283;21986;-69
2023/09/03 07:04:43;;;;;;;4.90;2.70;;;;;;;33.33;34.45;100849.20;107895;1286;21988;-68
2023/09/03 07:07:09;;;;;;;5.70;2.70;;;;;;;33.43;34.47;100843.45;108005;1288;21994;-59
2023/09/03 07:09:35;;;;;;;4.70;2.80;;;;;;;33.58;33.94;100842.61;108007;1288;22000;-67
2023/09/03 07:12:01;;;;;;;6.30;3.20;;;;;;;33.66;33.55;100842.20;108009;1288;23777;-70
2023/09/03 07:14:26;;;;;;;10.10;3.10;;;;;;;33.72;33.67;100844.02;107989;1288;21987;-69
2023/09/03 07:16:52;;;;;;;4.70;2.80;;;;;;;33.85;33.92;100840.48;107744;1288;21999;-61
2023/09/03 07:19:18;;;;;;;4.90;2.70;;;;;;;34.02;33.33;100843.65;107797;1289;22004;-69
2023/09/03 07:21:43;;;;;;;6.50;2.80;;;;;;;34.11;33.49;100839.77;107826;1289;21999;-59
2023/09/03 07:24:09;;;;;;;5.10;2.90;;;;;;;34.28;33.35;100839.13;107893;1288;23056;-60
2023/09/03 07:26:35;;;;;;;5.90;3.30;;;;;;;34.45;32.89;100834.08;108050;1283;21995;-59
2023/09/03 07:29:01;;;;;;;8.40;3.00;;;;;;;34.62;33.25;100830.01;107939;1288;21990;-69
2023/09/03 07:31:27;;;;;;;6.90;3.20;;;;;;;34.92;32.84;100834.27;108043;1286;22006;-60
2023/09/03 07:33:53;;;;;;;4.10;2.50;;;;;;;35.18;32.60;100835.67;108032;1283;21992;-59
2023/09/03 07:36:18;;;;;;;6.60;3.00;;;;;;;35.28;32.73;100838.52;107964;1286;22025;-61
2023/09/03 07:38:44;;;;;;;6.50;2.70;;;;;;;35.36;32.34;100839.30;108011;1283;23590;-60
2023/09/03 07:41:09;;;;;;;8.30;3.00;;;;;;;35.55;32.13;100837.05;108054;1283;21990;-60
2023/09/03 07:43:35;;;;;;;5.30;2.80;;;;;;;35.68;31.87;100840.91;107982;1283;21992;-61
2023/09/03 07:46:01;;;;;;;6.30;3.10;;;;;;;35.66;31.58;100840.65;107991;1283;22177;-63
2023/09/03 07:48:26;;;;;;;6.30;2.70;;;;;;;35.64;31.45;100840.65;108020;1283;21993;-69
2023/09/03 07:50:52;;;;;;;4.40;2.80;;;;;;;35.74;31.55;100841.02;107964;1288;21990;-69
2023/09/03 07:53:18;;;;;;;7.30;3.30;;;;;;;35.98;31.92;100842.48;107798;1288;23626;-60
2023/09/03 07:55:44;;;;;;;6.90;2.40;;;;;;;36.39;32.20;100838.38;107980;1283;22098;-71
2023/09/03 07:58:09;;;;;;;6.60;2.90;;;;;;;36.75;30.84;100835.95;107970;1288;21990;-61
2023/09/03 08:00:35;;;;;;;4.00;2.90;;;;;;;36.82;30.71;100835.34;107975;1282;21989;-69
2023/09/03 08:03:01;;;;;;;5.10;3.00;;;;;;;36.90;31.30;100838.56;107906;1283;22172;-60
2023/09/03 08:05:27;;;;;;;6.00;2.70;;;;;;;37.19;31.40;100833.38;108044;1288;21989;-70
2023/09/03 08:07:52;;;;;;;5.00;2.80;;;;;;;37.42;31.08;100833.40;107887;1288;22030;-69
2023/09/03 08:10:18;;;;;;;4.50;2.70;;;;;;;37.56;30.16;100830.98;107982;1284;22063;-60
2023/09/03 08:12:44;;;;;;;5.00;2.50;;;;;;;37.46;30.20;100831.41;108019;1285;22049;-69
2023/09/03 08:15:10;;;;;;;3.40;2.70;;;;;;;37.45;30.27;100829.37;108007;1283;21994;-60
2023/09/03 08:17:36;;;;;;;5.90;2.60;;;;;;;37.59;30.28;100820.77;108005;1288;21992;-69
2023/09/03 08:20:03;;;;;;;6.90;3.00;;;;;;;37.87;30.37;100816.82;107915;1288;23644;-68
2023/09/03 08:22:29;;;;;;;5.50;3.10;;;;;;;38.22;29.70;100816.52;108017;1288;23101;-70
2023/09/03 08:24:55;;;;;;;4.80;2.80;;;;;;;38.56;28.96;100814.51;108026;1288;21995;-69
2023/09/03 08:27:21;;;;;;;6.50;3.00;;;;;;;38.65;29.03;100815.23;108004;1288;21986;-61
2023/09/03 08:29:47;;;;;;;5.20;2.40;;;;;;;38.68;28.84;100813.58;107977;1286;21987;-61
2023/09/03 08:32:12;;;;;;;7.50;3.10;;;;;;;38.75;28.84;100810.22;108015;1284;21986;-70
2023/09/03 08:34:38;;;;;;;4.70;2.50;;;;;;;38.87;29.00;100798.59;108151;1283;23727;-60
2023/09/03 08:37:03;;;;;;;5.60;2.90;;;;;;;38.97;27.98;100798.96;107806;1289;22052;-70
2023/09/03 08:39:29;;;;;;;5.50;2.80;;;;;;;38.90;27.34;100796.02;107821;1280;21992;-69
2023/09/03 08:41:56;;;;;;;8.20;2.80;;;;;;;38.82;28.21;100794.05;107802;1282;21990;-60
2023/09/03 08:44:45;;;;;;;6.10;2.50;;;;;;;39.06;28.59;100792.52;108002;1283;21992;-70
2023/09/03 08:47:12;;;;;;;6.20;3.30;;;;;;;39.49;28.57;100789.17;107971;1280;21993;-59
2023/09/03 08:49:38;;;;;;;5.90;2.40;;;;;;;39.92;28.59;100785.52;108031;1288;21999;-60
2023/09/03 08:52:04;;;;;;;5.00;2.40;;;;;;;40.36;28.17;100781.41;108031;1280;21998;-70
2023/09/03 08:54:30;;;;;;;4.50;2.50;;;;;;;40.75;27.97;100785.58;108073;1288;23055;-62
2023/09/03 08:56:57;;;;;;;4.00;1.90;;;;;;;41.11;27.97;100786.14;108131;1278;21990;-70
2023/09/03 08:59:23;;;;;;;7.10;2.60;;;;;;;41.46;27.72;100785.30;107989;1288;22033;-67
2023/09/03 09:01:52;;;;;;;5.30;2.10;;;;;;;41.76;27.41;100784.45;108176;1288;21995;-68
2023/09/03 09:04:18;;;;;;;3.20;2.30;;;;;;;42.05;27.26;100777.95;108125;1284;21989;-59
2023/09/03 09:06:43;;;;;;;4.00;2.30;;;;;;;42.26;26.94;100780.42;107933;1281;22007;-59
2023/09/03 09:09:10;;;;;;;4.00;2.40;;;;;;;42.22;26.37;100780.18;108131;1280;21983;-60
2023/09/03 09:11:38;;;;;;;3.80;2.30;;;;;;;41.93;25.87;100782.02;107877;1287;21996;-68
2023/09/03 09:14:07;;;;;;;5.10;2.20;;;;;;;41.68;25.81;100784.13;108056;1288;21989;-59
2023/09/03 09:16:33;;;;;;;3.80;2.50;;;;;;;41.40;25.08;100785.89;108029;1286;22004;-60
2023/09/03 09:19:02;;;;;;;4.60;2.40;;;;;;;41.01;25.12;100786.49;107992;1283;22001;-60
2023/09/03 09:21:30;;;;;;;6.50;2.30;;;;;;;40.66;25.54;100785.30;108033;1288;21995;-69
2023/09/03 09:24:02;;;;;;;5.90;2.80;;;;;;;40.22;24.67;100785.00;108044;1286;23075;-60
2023/09/03 09:26:31;;;;;;;3.20;2.30;;;;;;;39.84;25.45;100780.90;107994;1283;21989;-60
2023/09/03 09:28:58;;;;;;;4.10;2.70;;;;;;;39.51;24.91;100783.30;108039;1288;21992;-69
2023/09/03 09:31:29;;;;;;;4.20;2.50;;;;;;;39.21;25.70;100780.35;108027;1283;21959;-60
2023/09/03 09:33:55;;;;;;;5.00;2.30;;;;;;;39.23;26.30;100778.58;108122;1283;23840;-69
2023/09/03 09:36:20;;;;;;;6.50;2.30;;;;;;;39.37;25.95;100774.56;108012;1283;21991;-62
2023/09/03 09:38:46;;;;;;;6.60;2.60;;;;;;;39.39;25.93;100776.70;108075;1288;21992;-68
2023/09/03 09:41:25;;;;;;;4.30;2.20;;;;;;;39.37;26.21;100778.08;108047;1288;23659;-61
2023/09/03 09:43:51;;;;;;;5.00;2.30;;;;;;;39.34;25.60;100773.73;108147;1280;22054;-60
2023/09/03 09:46:30;;;;;;;5.00;2.20;;;;;;;39.21;25.95;100772.63;108150;1278;22041;-62
2023/09/03 09:48:57;;;;;;;5.30;2.40;;;;;;;39.22;26.16;100770.44;108081;1280;22000;-69
2023/09/03 09:51:23;;;;;;;4.60;2.00;;;;;;;39.28;25.98;100770.23;108028;1286;22057;-61
2023/09/03 09:53:58;;;;;;;4.00;2.10;;;;;;;39.38;26.04;100767.83;107917;1289;22000;-70
2023/09/03 09:56:31;;;;;;;5.20;2.00;;;;;;;39.57;26.02;100766.15;107907;1289;21990;-69
2023/09/03 09:58:57;;;;;;;5.30;2.40;;;;;;;39.78;25.81;100757.77;107902;1282;21994;-69
2023/09/03 10:01:25;;;;;;;4.20;2.00;;;;;;;39.96;25.58;100753.80;107962;1288;22004;-68
2023/09/03 10:03:50;;;;;;;4.40;2.30;;;;;;;40.23;25.68;100750.03;108004;1283;21994;-70
2023/09/03 10:06:18;;;;;;;3.30;2.20;;;;;;;40.41;25.25;100745.89;107987;1287;21989;-69
2023/09/03 10:08:45;;;;;;;6.90;2.40;;;;;;;40.56;24.77;100745.30;108024;1288;23647;-61
2023/09/03 10:11:11;;;;;;;5.30;2.60;;;;;;;40.81;25.18;100742.25;108016;1288;21989;-69
2023/09/03 10:13:39;;;;;;;9.80;2.10;;;;;;;41.24;25.47;100737.72;108027;1283;22196;-61
2023/09/03 10:16:08;;;;;;;2.70;1.80;;;;;;;41.71;25.11;100734.84;108058;1286;21992;-61
2023/09/03 10:18:43;;;;;;;3.50;2.20;;;;;;;41.93;23.70;100727.98;108003;1288;21991;-61
2023/09/03 10:21:09;;;;;;;4.90;2.20;;;;;;;41.68;22.51;100722.79;108148;1283;22023;-70
2023/09/03 10:23:39;;;;;;;5.80;2.20;;;;;;;41.28;23.14;100721.16;107800;1284;22003;-62
2023/09/03 10:26:05;;;;;;;8.30;3.00;;;;;;;40.95;22.87;100715.27;107829;1286;22031;-61
2023/09/03 10:28:30;;;;;;;6.50;2.30;;;;;;;40.76;23.22;100716.63;107910;1283;21995;-60
2023/09/03 10:30:56;;;;;;;4.50;2.30;;;;;;;40.59;23.19;100710.10;108910;1275;21988;-69
2023/09/03 10:33:22;;;;;;;6.60;2.50;;;;;;;40.43;23.64;100709.88;108080;1275;21992;-68
2023/09/03 10:36:15;;;;;;;7.20;2.30;;;;;;;40.43;23.71;100706.91;108067;1283;23749;-60
2023/09/03 10:38:42;;;;;;;4.10;2.10;;;;;;;40.38;23.70;100703.73;108152;1288;21995;-60
2023/09/03 10:41:24;;;;;;;4.40;2.40;;;;;;;40.35;23.78;100699.45;108116;1288;21992;-68
2023/09/03 10:43:53;;;;;;;7.10;2.60;;;;;;;40.50;23.79;100694.20;108088;1288;21962;-61
2023/09/03 10:46:22;;;;;;;3.60;2.30;;;;;;;40.61;23.39;100693.20;108033;1280;22004;-68
2023/09/03 10:48:57;;;;;;;6.40;2.70;;;;;;;40.69;23.33;100693.70;108075;1288;21998;-69
2023/09/03 10:51:41;;;;;;;4.00;2.30;;;;;;;40.73;23.28;100692.98;108071;1288;23642;-67
2023/09/03 10:54:20;;;;;;;4.80;2.40;;;;;;;40.56;23.19;100696.89;108030;1281;23046;-68
2023/09/03 10:57:03;;;;;;;3.30;2.30;;;;;;;40.26;23.66;100695.89;108041;1288;22006;-69
2023/09/03 10:59:57;;;;;;;4.90;2.30;;;;;;;40.09;23.95;100693.61;108075;1286;23663;-60
2023/09/03 11:02:24;;;;;;;6.50;2.10;;;;;;;40.01;23.87;100693.00;107997;1288;23814;-69
2023/09/03 11:05:23;;;;;;;5.60;2.50;;;;;;;39.92;23.86;100694.53;108025;1288;23717;-59
2023/09/03 11:07:50;;;;;;;4.00;1.80;;;;;;;39.82;23.96;100695.73;107808;1285;22215;-60
2023/09/03 11:10:24;;;;;;;4.70;2.30;;;;;;;39.72;24.04;100691.84;107967;1288;22082;-60
2023/09/03 11:12:51;;;;;;;6.10;2.10;;;;;;;39.62;23.41;100687.67;108085;1288;22003;-68
2023/09/03 11:15:17;;;;;;;5.50;2.30;;;;;;;39.41;23.50;100683.44;108040;1288;21997;-67
2023/09/03 11:17:52;;;;;;;3.50;1.90;;;;;;;39.21;24.02;100682.41;108093;1288;21999;-68